Richfield, Wisconsin
Current Conditions -  °F | °C
As of 1:35 PM on Friday 28 Nov 2014 (Local Time) from KETB Reporting Station
Overcast Overcast  
Wind Chill: 21°   Ceiling: 8500
Heat Index: 27°   Visibility: 10mi
Dew Point: 14°   Wind: 5mph
Humidity: 59%   Direction: 160°SSE
Pressure: 30"   Gusts: NA
Location:  43.26°N, 88.19°W
Report Text: KETB 281935Z AUTO 16004KT 10SM OVC085 M03/M10 A3000 RMK AO2
Loading
Personal Weather Stations






























Interactive Weather Map New forecast layout! Learn more

10-Day Weather Forecast

Advertisements
Track Severe Weather on mobile